sensor_id;sensor_type;location;lat;lon;timestamp;pressure;altitude;pressure_sealevel;temperature;humidity
596;BME280;19946;49.306;11.350;2023-02-17T00:02:07;97096.88;;;2.51;100.00
596;BME280;19946;49.306;11.350;2023-02-17T00:05:07;97067.31;;;2.25;100.00
596;BME280;19946;49.306;11.350;2023-02-17T00:08:07;97074.44;;;2.17;100.00
596;BME280;19946;49.306;11.350;2023-02-17T00:11:07;97113.75;;;2.35;100.00
596;BME280;19946;49.306;11.350;2023-02-17T00:14:10;97107.81;;;2.34;100.00
596;BME280;19946;49.306;11.350;2023-02-17T00:17:11;97046.28;;;2.18;100.00
596;BME280;19946;49.306;11.350;2023-02-17T00:20:12;97011.88;;;2.46;100.00
596;BME280;19946;49.306;11.350;2023-02-17T00:23:12;97031.94;;;3.30;100.00
596;BME280;19946;49.306;11.350;2023-02-17T00:26:13;97079.28;;;3.93;100.00
596;BME280;19946;49.306;11.350;2023-02-17T00:29:15;97025.78;;;3.87;100.00
596;BME280;19946;49.306;11.350;2023-02-17T00:32:15;97112.56;;;4.29;100.00
596;BME280;19946;49.306;11.350;2023-02-17T00:35:16;97122.22;;;4.42;100.00
596;BME280;19946;49.306;11.350;2023-02-17T00:38:16;97124.56;;;4.96;100.00
596;BME280;19946;49.306;11.350;2023-02-17T00:41:17;97023.69;;;4.46;100.00
596;BME280;19946;49.306;11.350;2023-02-17T00:44:20;97111.88;;;5.09;100.00
596;BME280;19946;49.306;11.350;2023-02-17T00:47:20;97072.78;;;4.88;100.00
596;BME280;19946;49.306;11.350;2023-02-17T00:50:21;97133.22;;;5.27;100.00
596;BME280;19946;49.306;11.350;2023-02-17T00:53:21;97121.84;;;5.15;100.00
596;BME280;19946;49.306;11.350;2023-02-17T00:56:21;97143.25;;;5.47;100.00
596;BME280;19946;49.306;11.350;2023-02-17T00:59:22;97137.56;;;5.58;100.00
596;BME280;19946;49.306;11.350;2023-02-17T01:02:22;96967.59;;;4.55;100.00
596;BME280;19946;49.306;11.350;2023-02-17T01:05:22;97078.56;;;5.40;100.00
596;BME280;19946;49.306;11.350;2023-02-17T01:08:23;96990.00;;;4.85;100.00
596;BME280;19946;49.306;11.350;2023-02-17T01:11:27;96993.81;;;4.93;100.00
596;BME280;19946;49.306;11.350;2023-02-17T01:14:27;97049.78;;;5.34;100.00
596;BME280;19946;49.306;11.350;2023-02-17T01:17:29;97112.50;;;5.77;100.00
596;BME280;19946;49.306;11.350;2023-02-17T01:20:33;97125.03;;;5.99;100.00
596;BME280;19946;49.306;11.350;2023-02-17T01:23:34;97122.22;;;6.03;100.00
596;BME280;19946;49.306;11.350;2023-02-17T01:26:35;97012.44;;;5.44;100.00
596;BME280;19946;49.306;11.350;2023-02-17T01:29:36;97052.66;;;5.75;100.00
596;BME280;19946;49.306;11.350;2023-02-17T01:32:37;97006.13;;;5.34;100.00
596;BME280;19946;49.306;11.350;2023-02-17T01:35:37;97048.84;;;5.66;100.00
596;BME280;19946;49.306;11.350;2023-02-17T01:38:38;96933.97;;;4.93;100.00
596;BME280;19946;49.306;11.350;2023-02-17T01:41:39;97070.47;;;5.78;100.00
596;BME280;19946;49.306;11.350;2023-02-17T01:45:26;97097.84;;;5.95;100.00
596;BME280;19946;49.306;11.350;2023-02-17T01:48:36;97080.09;;;5.74;100.00
596;BME280;19946;49.306;11.350;2023-02-17T01:51:37;97087.09;;;5.72;100.00
596;BME280;19946;49.306;11.350;2023-02-17T01:54:48;96984.78;;;5.02;100.00
596;BME280;19946;49.306;11.350;2023-02-17T01:57:53;96915.09;;;4.62;100.00
596;BME280;19946;49.306;11.350;2023-02-17T02:00:59;96973.69;;;5.01;100.00
596;BME280;19946;49.306;11.350;2023-02-17T02:04:02;96981.38;;;5.01;100.00
596;BME280;19946;49.306;11.350;2023-02-17T02:07:05;97040.34;;;5.34;100.00
596;BME280;19946;49.306;11.350;2023-02-17T02:10:10;96989.00;;;5.03;100.00
596;BME280;19946;49.306;11.350;2023-02-17T02:13:11;97059.25;;;5.49;100.00
596;BME280;19946;49.306;11.350;2023-02-17T02:16:17;96994.75;;;5.08;100.00
596;BME280;19946;49.306;11.350;2023-02-17T02:36:14;97008.56;;;5.67;100.00
596;BME280;19946;49.306;11.350;2023-02-17T02:39:23;96974.66;;;5.46;100.00
596;BME280;19946;49.306;11.350;2023-02-17T02:42:24;96883.91;;;4.86;100.00
596;BME280;19946;49.306;11.350;2023-02-17T02:45:24;96880.91;;;4.93;100.00
596;BME280;19946;49.306;11.350;2023-02-17T02:48:26;97010.00;;;5.86;100.00
596;BME280;19946;49.306;11.350;2023-02-17T02:54:49;97007.44;;;5.86;100.00
596;BME280;19946;49.306;11.350;2023-02-17T03:01:25;96940.44;;;5.45;100.00
596;BME280;19946;49.306;11.350;2023-02-17T03:04:36;97019.56;;;5.84;100.00
596;BME280;19946;49.306;11.350;2023-02-17T03:07:48;96970.13;;;5.65;100.00
596;BME280;19946;49.306;11.350;2023-02-17T03:10:51;96918.50;;;5.40;100.00
596;BME280;19946;49.306;11.350;2023-02-17T03:13:51;96920.03;;;5.42;100.00
596;BME280;19946;49.306;11.350;2023-02-17T03:16:53;96903.88;;;5.26;100.00
596;BME280;19946;49.306;11.350;2023-02-17T03:19:53;96988.41;;;5.75;100.00
596;BME280;19946;49.306;11.350;2023-02-17T03:22:53;96945.00;;;5.40;100.00
596;BME280;19946;49.306;11.350;2023-02-17T03:25:54;96990.34;;;5.71;100.00
596;BME280;19946;49.306;11.350;2023-02-17T03:28:54;96908.72;;;5.31;100.00
596;BME280;19946;49.306;11.350;2023-02-17T03:31:55;96944.50;;;5.49;100.00
596;BME280;19946;49.306;11.350;2023-02-17T03:34:55;96998.97;;;5.70;100.00
596;BME280;19946;49.306;11.350;2023-02-17T03:37:57;96949.25;;;5.26;100.00
596;BME280;19946;49.306;11.350;2023-02-17T03:40:57;96998.94;;;5.40;100.00
596;BME280;19946;49.306;11.350;2023-02-17T03:43:58;96911.75;;;4.76;100.00
596;BME280;19946;49.306;11.350;2023-02-17T03:46:58;96930.72;;;4.89;100.00
596;BME280;19946;49.306;11.350;2023-02-17T03:49:58;96935.78;;;4.75;100.00
596;BME280;19946;49.306;11.350;2023-02-17T03:52:58;96998.63;;;5.15;100.00
596;BME280;19946;49.306;11.350;2023-02-17T03:55:59;96933.69;;;4.66;100.00
596;BME280;19946;49.306;11.350;2023-02-17T03:58:59;96980.81;;;4.96;100.00
596;BME280;19946;49.306;11.350;2023-02-17T04:02:00;96979.72;;;5.00;100.00
596;BME280;19946;49.306;11.350;2023-02-17T04:05:00;96949.75;;;4.69;100.00
596;BME280;19946;49.306;11.350;2023-02-17T04:08:00;96919.13;;;4.51;100.00
596;BME280;19946;49.306;11.350;2023-02-17T04:11:03;96996.81;;;4.86;100.00
596;BME280;19946;49.306;11.350;2023-02-17T04:14:03;96982.97;;;4.72;100.00
596;BME280;19946;49.306;11.350;2023-02-17T04:17:04;96994.44;;;4.65;100.00
596;BME280;19946;49.306;11.350;2023-02-17T04:20:05;96970.22;;;4.38;100.00
596;BME280;19946;49.306;11.350;2023-02-17T04:23:06;96978.69;;;4.40;100.00
596;BME280;19946;49.306;11.350;2023-02-17T04:26:07;96984.31;;;4.47;100.00
596;BME280;19946;49.306;11.350;2023-02-17T04:29:07;96873.41;;;3.94;100.00
596;BME280;19946;49.306;11.350;2023-02-17T04:32:08;96991.78;;;4.67;100.00
596;BME280;19946;49.306;11.350;2023-02-17T04:35:08;96946.56;;;4.33;100.00
596;BME280;19946;49.306;11.350;2023-02-17T04:38:09;96982.09;;;4.56;100.00
596;BME280;19946;49.306;11.350;2023-02-17T04:41:10;96936.13;;;4.20;100.00
596;BME280;19946;49.306;11.350;2023-02-17T04:44:10;96942.94;;;4.37;100.00
596;BME280;19946;49.306;11.350;2023-02-17T04:47:10;96980.69;;;4.51;100.00
596;BME280;19946;49.306;11.350;2023-02-17T04:50:11;96995.78;;;4.72;100.00
596;BME280;19946;49.306;11.350;2023-02-17T04:53:11;96855.19;;;3.83;100.00
596;BME280;19946;49.306;11.350;2023-02-17T04:56:13;96907.47;;;4.12;100.00
596;BME280;19946;49.306;11.350;2023-02-17T04:59:13;96998.09;;;4.61;100.00
596;BME280;19946;49.306;11.350;2023-02-17T05:02:13;96905.41;;;4.03;100.00
596;BME280;19946;49.306;11.350;2023-02-17T05:05:14;96995.94;;;4.69;100.00
596;BME280;19946;49.306;11.350;2023-02-17T05:08:14;96991.28;;;4.60;100.00
596;BME280;19946;49.306;11.350;2023-02-17T05:11:15;96997.81;;;4.66;100.00
596;BME280;19946;49.306;11.350;2023-02-17T05:14:15;96927.53;;;4.21;100.00
596;BME280;19946;49.306;11.350;2023-02-17T05:17:15;96922.50;;;4.02;100.00
596;BME280;19946;49.306;11.350;2023-02-17T05:20:16;96902.97;;;4.17;100.00
596;BME280;19946;49.306;11.350;2023-02-17T05:23:16;96980.53;;;4.69;100.00
596;BME280;19946;49.306;11.350;2023-02-17T05:26:17;96998.53;;;4.85;100.00
596;BME280;19946;49.306;11.350;2023-02-17T05:29:17;96988.44;;;4.82;100.00
596;BME280;19946;49.306;11.350;2023-02-17T05:32:17;97013.09;;;5.00;100.00
596;BME280;19946;49.306;11.350;2023-02-17T05:35:18;96988.03;;;5.05;100.00
596;BME280;19946;49.306;11.350;2023-02-17T05:38:18;96975.34;;;5.02;100.00
596;BME280;19946;49.306;11.350;2023-02-17T05:41:19;96960.03;;;5.01;100.00
596;BME280;19946;49.306;11.350;2023-02-17T05:44:19;96908.88;;;4.66;100.00
596;BME280;19946;49.306;11.350;2023-02-17T05:47:20;96981.88;;;5.24;100.00
596;BME280;19946;49.306;11.350;2023-02-17T05:50:21;96910.47;;;4.85;100.00
596;BME280;19946;49.306;11.350;2023-02-17T05:53:22;96889.09;;;4.68;100.00
596;BME280;19946;49.306;11.350;2023-02-17T05:56:22;96945.84;;;5.09;100.00
596;BME280;19946;49.306;11.350;2023-02-17T05:59:23;96979.03;;;5.44;100.00
596;BME280;19946;49.306;11.350;2023-02-17T06:02:23;96887.75;;;4.93;100.00
596;BME280;19946;49.306;11.350;2023-02-17T06:05:24;96978.88;;;5.47;100.00
596;BME280;19946;49.306;11.350;2023-02-17T06:08:24;96977.34;;;5.59;100.00
596;BME280;19946;49.306;11.350;2023-02-17T06:11:24;96968.53;;;5.63;100.00
596;BME280;19946;49.306;11.350;2023-02-17T06:14:25;96961.50;;;5.66;100.00
596;BME280;19946;49.306;11.350;2023-02-17T06:17:25;96880.75;;;5.26;100.00
596;BME280;19946;49.306;11.350;2023-02-17T06:20:25;96920.47;;;5.50;100.00
596;BME280;19946;49.306;11.350;2023-02-17T06:23:26;96995.34;;;6.04;100.00
596;BME280;19946;49.306;11.350;2023-02-17T06:26:27;96958.91;;;5.82;100.00
596;BME280;19946;49.306;11.350;2023-02-17T06:29:27;96918.09;;;5.62;100.00
596;BME280;19946;49.306;11.350;2023-02-17T06:32:27;96805.41;;;4.97;100.00
596;BME280;19946;49.306;11.350;2023-02-17T06:35:28;96994.50;;;6.18;100.00
596;BME280;19946;49.306;11.350;2023-02-17T06:38:28;96852.28;;;5.45;100.00
596;BME280;19946;49.306;11.350;2023-02-17T06:41:28;96977.88;;;6.09;100.00
596;BME280;19946;49.306;11.350;2023-02-17T06:44:29;96977.03;;;6.09;100.00
596;BME280;19946;49.306;11.350;2023-02-17T06:47:33;97004.09;;;6.16;100.00
596;BME280;19946;49.306;11.350;2023-02-17T06:50:34;96887.34;;;5.60;100.00
596;BME280;19946;49.306;11.350;2023-02-17T06:53:35;96949.13;;;6.03;100.00
596;BME280;19946;49.306;11.350;2023-02-17T06:56:35;96996.38;;;6.30;100.00
596;BME280;19946;49.306;11.350;2023-02-17T06:59:35;96986.63;;;6.21;100.00
596;BME280;19946;49.306;11.350;2023-02-17T07:02:37;96880.56;;;5.59;100.00
596;BME280;19946;49.306;11.350;2023-02-17T07:05:37;96904.72;;;5.71;100.00
596;BME280;19946;49.306;11.350;2023-02-17T07:08:39;96906.25;;;5.89;100.00
596;BME280;19946;49.306;11.350;2023-02-17T07:11:40;96906.69;;;5.96;100.00
596;BME280;19946;49.306;11.350;2023-02-17T07:14:41;96962.75;;;6.47;100.00
596;BME280;19946;49.306;11.350;2023-02-17T07:17:41;96911.13;;;6.08;100.00
596;BME280;19946;49.306;11.350;2023-02-17T07:20:41;96958.63;;;6.45;100.00
596;BME280;19946;49.306;11.350;2023-02-17T07:23:42;96952.56;;;6.32;100.00
596;BME280;19946;49.306;11.350;2023-02-17T07:26:42;96941.91;;;6.23;100.00
596;BME280;19946;49.306;11.350;2023-02-17T07:29:42;96958.34;;;6.35;100.00
596;BME280;19946;49.306;11.350;2023-02-17T07:32:43;97004.00;;;6.74;100.00
596;BME280;19946;49.306;11.350;2023-02-17T07:35:43;96872.00;;;6.03;100.00
596;BME280;19946;49.306;11.350;2023-02-17T07:38:44;96925.66;;;6.37;100.00
596;BME280;19946;49.306;11.350;2023-02-17T07:41:44;96927.66;;;6.46;100.00
596;BME280;19946;49.306;11.350;2023-02-17T07:44:44;96999.28;;;6.95;100.00
596;BME280;19946;49.306;11.350;2023-02-17T07:47:45;96981.84;;;6.86;100.00
596;BME280;19946;49.306;11.350;2023-02-17T07:50:45;96858.78;;;6.09;100.00
596;BME280;19946;49.306;11.350;2023-02-17T07:53:46;97001.59;;;7.00;100.00
596;BME280;19946;49.306;11.350;2023-02-17T07:56:46;97000.84;;;6.97;100.00
596;BME280;19946;49.306;11.350;2023-02-17T07:59:47;96932.50;;;6.79;100.00
596;BME280;19946;49.306;11.350;2023-02-17T08:02:47;96841.97;;;6.32;100.00
596;BME280;19946;49.306;11.350;2023-02-17T08:05:47;96926.78;;;6.88;100.00
596;BME280;19946;49.306;11.350;2023-02-17T08:08:51;96881.28;;;6.75;100.00
596;BME280;19946;49.306;11.350;2023-02-17T08:12:15;96912.22;;;7.02;100.00
596;BME280;19946;49.306;11.350;2023-02-17T08:15:34;96902.00;;;7.00;100.00
596;BME280;19946;49.306;11.350;2023-02-17T08:18:34;96924.66;;;7.22;100.00
596;BME280;19946;49.306;11.350;2023-02-17T08:21:34;96937.94;;;7.28;100.00
596;BME280;19946;49.306;11.350;2023-02-17T08:24:35;96985.34;;;7.53;100.00
596;BME280;19946;49.306;11.350;2023-02-17T08:27:35;97006.88;;;7.79;100.00
596;BME280;19946;49.306;11.350;2023-02-17T08:30:36;96920.25;;;7.37;100.00
596;BME280;19946;49.306;11.350;2023-02-17T08:33:37;96904.78;;;7.37;100.00
596;BME280;19946;49.306;11.350;2023-02-17T08:36:38;96917.53;;;7.52;100.00
596;BME280;19946;49.306;11.350;2023-02-17T08:39:38;96998.56;;;8.00;100.00
596;BME280;19946;49.306;11.350;2023-02-17T08:42:39;96800.41;;;6.79;100.00
596;BME280;19946;49.306;11.350;2023-02-17T08:45:39;96934.06;;;7.75;100.00
596;BME280;19946;49.306;11.350;2023-02-17T08:48:40;97010.16;;;8.20;100.00
596;BME280;19946;49.306;11.350;2023-02-17T08:51:40;96997.47;;;8.30;100.00
596;BME280;19946;49.306;11.350;2023-02-17T08:54:41;96995.28;;;8.24;100.00
596;BME280;19946;49.306;11.350;2023-02-17T08:57:41;96994.59;;;8.22;100.00
596;BME280;19946;49.306;11.350;2023-02-17T09:00:41;96891.69;;;7.66;100.00
596;BME280;19946;49.306;11.350;2023-02-17T09:03:41;96889.94;;;7.67;100.00
596;BME280;19946;49.306;11.350;2023-02-17T09:06:45;96925.09;;;7.93;100.00
596;BME280;19946;49.306;11.350;2023-02-17T09:09:46;96987.69;;;8.35;100.00
596;BME280;19946;49.306;11.350;2023-02-17T09:12:46;96912.13;;;7.95;100.00
596;BME280;19946;49.306;11.350;2023-02-17T09:15:46;96883.94;;;7.66;100.00
596;BME280;19946;49.306;11.350;2023-02-17T09:18:52;96956.38;;;8.14;100.00
596;BME280;19946;49.306;11.350;2023-02-17T09:21:53;97007.00;;;8.42;100.00
596;BME280;19946;49.306;11.350;2023-02-17T09:24:53;96906.63;;;7.74;100.00
596;BME280;19946;49.306;11.350;2023-02-17T09:27:54;96934.47;;;7.82;100.00
596;BME280;19946;49.306;11.350;2023-02-17T09:30:55;97000.88;;;8.30;100.00
596;BME280;19946;49.306;11.350;2023-02-17T09:33:56;96993.75;;;8.21;100.00
596;BME280;19946;49.306;11.350;2023-02-17T09:36:56;97005.97;;;8.32;100.00
596;BME280;19946;49.306;11.350;2023-02-17T09:39:57;96933.16;;;7.89;100.00
596;BME280;19946;49.306;11.350;2023-02-17T09:42:57;96956.16;;;7.92;100.00
596;BME280;19946;49.306;11.350;2023-02-17T09:46:05;96963.59;;;8.09;100.00
596;BME280;19946;49.306;11.350;2023-02-17T09:49:12;96926.44;;;7.74;100.00
596;BME280;19946;49.306;11.350;2023-02-17T09:52:31;96979.41;;;8.17;100.00
596;BME280;19946;49.306;11.350;2023-02-17T09:55:43;96978.03;;;8.24;100.00
596;BME280;19946;49.306;11.350;2023-02-17T09:58:50;96917.69;;;7.89;100.00
596;BME280;19946;49.306;11.350;2023-02-17T10:01:54;97016.47;;;8.29;100.00
596;BME280;19946;49.306;11.350;2023-02-17T10:04:56;96980.94;;;8.07;100.00
596;BME280;19946;49.306;11.350;2023-02-17T10:08:14;97021.84;;;8.38;100.00
596;BME280;19946;49.306;11.350;2023-02-17T10:14:36;97018.44;;;8.38;100.00
596;BME280;19946;49.306;11.350;2023-02-17T10:20:54;96915.81;;;7.78;100.00
596;BME280;19946;49.306;11.350;2023-02-17T10:23:56;96876.91;;;7.56;100.00
596;BME280;19946;49.306;11.350;2023-02-17T10:27:31;97011.44;;;8.40;100.00
596;BME280;19946;49.306;11.350;2023-02-17T10:30:45;97029.19;;;8.57;100.00
596;BME280;19946;49.306;11.350;2023-02-17T10:34:01;96943.97;;;7.94;100.00
596;BME280;19946;49.306;11.350;2023-02-17T10:37:20;96947.28;;;7.83;100.00
596;BME280;19946;49.306;11.350;2023-02-17T10:40:26;96931.59;;;7.86;100.00
596;BME280;19946;49.306;11.350;2023-02-17T10:43:28;96926.66;;;7.83;100.00
596;BME280;19946;49.306;11.350;2023-02-17T10:46:31;96976.53;;;8.22;100.00
596;BME280;19946;49.306;11.350;2023-02-17T10:49:35;96907.88;;;7.94;100.00
596;BME280;19946;49.306;11.350;2023-02-17T10:52:38;96908.91;;;7.91;100.00
596;BME280;19946;49.306;11.350;2023-02-17T10:55:49;96870.94;;;7.68;100.00
596;BME280;19946;49.306;11.350;2023-02-17T10:58:53;97002.03;;;8.52;100.00
596;BME280;19946;49.306;11.350;2023-02-17T11:02:20;96988.72;;;8.58;100.00
596;BME280;19946;49.306;11.350;2023-02-17T11:05:28;96997.72;;;8.65;100.00
596;BME280;19946;49.306;11.350;2023-02-17T11:08:30;97007.41;;;8.74;100.00
596;BME280;19946;49.306;11.350;2023-02-17T11:11:34;96979.13;;;8.60;100.00
596;BME280;19946;49.306;11.350;2023-02-17T11:14:35;96995.31;;;8.74;100.00
596;BME280;19946;49.306;11.350;2023-02-17T11:17:40;96987.34;;;8.77;100.00
596;BME280;19946;49.306;11.350;2023-02-17T11:20:40;96851.38;;;7.78;100.00
596;BME280;19946;49.306;11.350;2023-02-17T11:23:58;96948.47;;;8.43;100.00
596;BME280;19946;49.306;11.350;2023-02-17T11:27:08;96887.47;;;8.16;100.00
596;BME280;19946;49.306;11.350;2023-02-17T11:30:14;96965.91;;;8.64;100.00
596;BME280;19946;49.306;11.350;2023-02-17T11:33:20;96970.84;;;8.67;100.00
596;BME280;19946;49.306;11.350;2023-02-17T11:39:21;96889.94;;;8.30;100.00
596;BME280;19946;49.306;11.350;2023-02-17T11:42:29;96827.44;;;7.89;100.00
596;BME280;19946;49.306;11.350;2023-02-17T11:45:44;96940.19;;;8.63;100.00
596;BME280;19946;49.306;11.350;2023-02-17T11:49:37;96936.25;;;8.57;100.00
596;BME280;19946;49.306;11.350;2023-02-17T11:52:50;96946.47;;;8.71;100.00
596;BME280;19946;49.306;11.350;2023-02-17T11:56:13;96947.41;;;8.70;100.00
596;BME280;19946;49.306;11.350;2023-02-17T12:02:43;96853.72;;;8.06;100.00
596;BME280;19946;49.306;11.350;2023-02-17T12:12:50;96881.03;;;7.58;100.00
596;BME280;19946;49.306;11.350;2023-02-17T12:19:42;96902.75;;;7.42;100.00
596;BME280;19946;49.306;11.350;2023-02-17T12:29:30;96947.44;;;7.55;100.00
596;BME280;19946;49.306;11.350;2023-02-17T12:36:02;96951.34;;;7.60;100.00
596;BME280;19946;49.306;11.350;2023-02-17T12:39:16;96905.72;;;7.36;100.00
596;BME280;19946;49.306;11.350;2023-02-17T12:42:27;96941.81;;;7.48;100.00
596;BME280;19946;49.306;11.350;2023-02-17T12:45:40;96944.50;;;7.47;100.00
596;BME280;19946;49.306;11.350;2023-02-17T12:48:46;96934.31;;;7.45;100.00
596;BME280;19946;49.306;11.350;2023-02-17T12:51:53;96882.97;;;7.15;100.00
596;BME280;19946;49.306;11.350;2023-02-17T12:55:19;96956.69;;;7.57;100.00
596;BME280;19946;49.306;11.350;2023-02-17T12:58:29;96877.00;;;7.02;100.00
596;BME280;19946;49.306;11.350;2023-02-17T13:01:30;96912.75;;;7.33;100.00
596;BME280;19946;49.306;11.350;2023-02-17T13:04:32;96955.28;;;7.66;100.00
596;BME280;19946;49.306;11.350;2023-02-17T13:07:44;96925.16;;;7.54;100.00
596;BME280;19946;49.306;11.350;2023-02-17T13:11:05;96897.06;;;7.37;100.00
596;BME280;19946;49.306;11.350;2023-02-17T13:14:26;96956.63;;;7.72;100.00
596;BME280;19946;49.306;11.350;2023-02-17T13:17:52;96940.97;;;7.75;100.00
596;BME280;19946;49.306;11.350;2023-02-17T13:24:32;96919.31;;;7.64;100.00
596;BME280;19946;49.306;11.350;2023-02-17T13:27:35;96943.88;;;7.83;100.00
596;BME280;19946;49.306;11.350;2023-02-17T13:30:41;96910.31;;;7.70;100.00
596;BME280;19946;49.306;11.350;2023-02-17T13:33:53;96933.03;;;7.90;100.00
596;BME280;19946;49.306;11.350;2023-02-17T13:36:54;96945.63;;;7.95;100.00
596;BME280;19946;49.306;11.350;2023-02-17T13:39:54;96921.50;;;7.83;100.00
596;BME280;19946;49.306;11.350;2023-02-17T13:43:10;96855.13;;;7.47;100.00
596;BME280;19946;49.306;11.350;2023-02-17T13:46:25;96928.72;;;8.03;100.00
596;BME280;19946;49.306;11.350;2023-02-17T13:49:27;96937.50;;;8.14;100.00
596;BME280;19946;49.306;11.350;2023-02-17T13:52:29;96854.66;;;7.67;100.00
596;BME280;19946;49.306;11.350;2023-02-17T13:55:30;96848.56;;;7.68;100.00
596;BME280;19946;49.306;11.350;2023-02-17T13:58:33;96930.91;;;8.35;100.00
596;BME280;19946;49.306;11.350;2023-02-17T14:01:36;96842.28;;;7.98;100.00
596;BME280;19946;49.306;11.350;2023-02-17T14:04:37;96904.38;;;8.46;100.00
596;BME280;19946;49.306;11.350;2023-02-17T14:07:37;96868.56;;;8.16;100.00
596;BME280;19946;49.306;11.350;2023-02-17T14:10:39;96822.38;;;7.87;100.00
596;BME280;19946;49.306;11.350;2023-02-17T14:13:43;96906.94;;;8.46;100.00
596;BME280;19946;49.306;11.350;2023-02-17T14:16:54;96875.06;;;8.34;100.00
596;BME280;19946;49.306;11.350;2023-02-17T14:19:54;96818.97;;;7.99;100.00
596;BME280;19946;49.306;11.350;2023-02-17T14:23:03;96902.81;;;8.56;100.00
596;BME280;19946;49.306;11.350;2023-02-17T14:26:27;96790.91;;;7.95;100.00
596;BME280;19946;49.306;11.350;2023-02-17T14:32:38;96829.97;;;8.27;100.00
596;BME280;19946;49.306;11.350;2023-02-17T14:35:57;96848.00;;;8.52;100.00
596;BME280;19946;49.306;11.350;2023-02-17T14:39:00;96902.94;;;8.91;100.00
596;BME280;19946;49.306;11.350;2023-02-17T14:42:01;96842.19;;;8.61;100.00
596;BME280;19946;49.306;11.350;2023-02-17T14:45:01;96892.69;;;8.89;100.00
596;BME280;19946;49.306;11.350;2023-02-17T14:48:01;96879.56;;;8.92;100.00
596;BME280;19946;49.306;11.350;2023-02-17T14:51:02;96743.94;;;8.15;100.00
596;BME280;19946;49.306;11.350;2023-02-17T14:54:22;96881.34;;;9.15;100.00
596;BME280;19946;49.306;11.350;2023-02-17T14:57:25;96801.50;;;8.65;100.00
596;BME280;19946;49.306;11.350;2023-02-17T15:00:27;96893.81;;;9.22;100.00
596;BME280;19946;49.306;11.350;2023-02-17T15:03:27;96863.47;;;9.12;100.00
596;BME280;19946;49.306;11.350;2023-02-17T15:06:46;96832.41;;;9.01;100.00
596;BME280;19946;49.306;11.350;2023-02-17T15:09:47;96789.19;;;8.92;100.00
596;BME280;19946;49.306;11.350;2023-02-17T15:12:49;96861.09;;;9.33;100.00
596;BME280;19946;49.306;11.350;2023-02-17T15:15:50;96832.41;;;9.25;100.00
596;BME280;19946;49.306;11.350;2023-02-17T15:18:50;96857.97;;;9.41;100.00
596;BME280;19946;49.306;11.350;2023-02-17T15:21:51;96853.75;;;9.51;100.00
596;BME280;19946;49.306;11.350;2023-02-17T15:24:51;96754.22;;;8.99;100.00
596;BME280;19946;49.306;11.350;2023-02-17T15:27:52;96810.25;;;9.45;100.00
596;BME280;19946;49.306;11.350;2023-02-17T15:30:53;96858.16;;;9.73;100.00
596;BME280;19946;49.306;11.350;2023-02-17T15:33:56;96808.50;;;9.57;100.00
596;BME280;19946;49.306;11.350;2023-02-17T15:36:58;96838.66;;;9.80;100.00
596;BME280;19946;49.306;11.350;2023-02-17T15:39:59;96792.09;;;9.69;100.00
596;BME280;19946;49.306;11.350;2023-02-17T15:42:59;96704.81;;;9.04;100.00
596;BME280;19946;49.306;11.350;2023-02-17T15:46:05;96815.38;;;9.80;100.00
596;BME280;19946;49.306;11.350;2023-02-17T15:49:11;96822.75;;;9.84;100.00
596;BME280;19946;49.306;11.350;2023-02-17T15:52:12;96732.34;;;9.27;100.00
596;BME280;19946;49.306;11.350;2023-02-17T15:55:13;96756.19;;;9.42;100.00
596;BME280;19946;49.306;11.350;2023-02-17T15:58:15;96826.88;;;9.87;100.00
596;BME280;19946;49.306;11.350;2023-02-17T16:01:31;96815.84;;;9.85;100.00
596;BME280;19946;49.306;11.350;2023-02-17T16:04:32;96788.56;;;9.70;100.00
596;BME280;19946;49.306;11.350;2023-02-17T16:07:32;96747.16;;;9.36;100.00
596;BME280;19946;49.306;11.350;2023-02-17T16:10:33;96781.81;;;9.45;100.00
596;BME280;19946;49.306;11.350;2023-02-17T16:13:34;96830.88;;;9.80;100.00
596;BME280;19946;49.306;11.350;2023-02-17T16:16:34;96768.28;;;9.41;100.00
596;BME280;19946;49.306;11.350;2023-02-17T16:19:35;96788.31;;;9.50;100.00
596;BME280;19946;49.306;11.350;2023-02-17T16:22:35;96832.63;;;9.68;100.00
596;BME280;19946;49.306;11.350;2023-02-17T16:25:35;96809.00;;;9.50;100.00
596;BME280;19946;49.306;11.350;2023-02-17T16:28:36;96858.03;;;9.74;100.00
596;BME280;19946;49.306;11.350;2023-02-17T16:31:36;96847.06;;;9.60;100.00
596;BME280;19946;49.306;11.350;2023-02-17T16:34:37;96814.84;;;9.52;100.00
596;BME280;19946;49.306;11.350;2023-02-17T16:37:37;96885.47;;;9.99;100.00
596;BME280;19946;49.306;11.350;2023-02-17T16:40:40;96824.97;;;9.56;100.00
596;BME280;19946;49.306;11.350;2023-02-17T16:43:46;96819.03;;;9.42;100.00
596;BME280;19946;49.306;11.350;2023-02-17T16:46:50;96898.50;;;9.86;100.00
596;BME280;19946;49.306;11.350;2023-02-17T16:49:51;96863.56;;;9.70;100.00
596;BME280;19946;49.306;11.350;2023-02-17T16:52:53;96867.44;;;9.75;100.00
596;BME280;19946;49.306;11.350;2023-02-17T16:55:54;96778.03;;;9.27;100.00
596;BME280;19946;49.306;11.350;2023-02-17T16:58:55;96774.41;;;9.29;100.00
596;BME280;19946;49.306;11.350;2023-02-17T17:01:55;96787.44;;;9.28;100.00
596;BME280;19946;49.306;11.350;2023-02-17T17:04:55;96862.38;;;9.85;100.00
596;BME280;19946;49.306;11.350;2023-02-17T17:07:56;96834.72;;;9.63;100.00
596;BME280;19946;49.306;11.350;2023-02-17T17:10:56;96794.72;;;9.34;100.00
596;BME280;19946;49.306;11.350;2023-02-17T17:13:56;96747.56;;;9.08;100.00
596;BME280;19946;49.306;11.350;2023-02-17T17:17:00;96897.91;;;9.83;100.00
596;BME280;19946;49.306;11.350;2023-02-17T17:20:00;96825.66;;;9.46;100.00
596;BME280;19946;49.306;11.350;2023-02-17T17:23:05;96814.47;;;9.35;100.00
596;BME280;19946;49.306;11.350;2023-02-17T17:26:27;96871.75;;;9.64;100.00
596;BME280;19946;49.306;11.350;2023-02-17T17:29:30;96893.44;;;9.85;100.00